YKHA weather

Khancoban Airport
New South Wales, Australia

Public forecast

Using degrees Celsius for public forecast. Weather courtesy of forecast.io.

Closest aviation weather report (METAR) to Khancoban Airport

Closest report is Cooma Snowy Mountains Airport, 42.0 nm (77.7 km) E. Retrieved 2020/05/30 05:00 UTC (49 minutes ago):

YCOM 300500Z AUTO 33010KT 9999 // ////// 14/02 Q1020

Closest aviation forecast (TAF) to Khancoban Airport

Forecast is more than 12 hours old.

Closest forecast is Wagga Wagga City Airport, 70.5 nm (130.7 km) NNW. Retrieved 2018/05/25 18:03 UTC (2 years ago):

TAF YSWG 251649Z 2518/2608 07008KT CAVOK